sensor_id;sensor_type;location;lat;lon;timestamp;temperature;humidity
12156;DHT22;6141;49.092;8.516;2024-03-07T00:00:15;8.80;51.50
12156;DHT22;6141;49.092;8.516;2024-03-07T00:02:46;8.90;50.80
12156;DHT22;6141;49.092;8.516;2024-03-07T00:05:16;8.90;50.80
12156;DHT22;6141;49.092;8.516;2024-03-07T00:07:44;8.90;50.80
12156;DHT22;6141;49.092;8.516;2024-03-07T00:10:13;8.80;50.70
12156;DHT22;6141;49.092;8.516;2024-03-07T00:12:43;8.80;51.50
12156;DHT22;6141;49.092;8.516;2024-03-07T00:15:13;8.80;50.70
12156;DHT22;6141;49.092;8.516;2024-03-07T00:17:42;8.80;51.10
12156;DHT22;6141;49.092;8.516;2024-03-07T00:20:11;8.90;50.80
12156;DHT22;6141;49.092;8.516;2024-03-07T00:22:43;8.90;50.80
12156;DHT22;6141;49.092;8.516;2024-03-07T00:25:11;8.80;51.10
12156;DHT22;6141;49.092;8.516;2024-03-07T00:27:40;8.80;50.80
12156;DHT22;6141;49.092;8.516;2024-03-07T00:30:08;8.80;50.70
12156;DHT22;6141;49.092;8.516;2024-03-07T00:32:38;8.80;50.70
12156;DHT22;6141;49.092;8.516;2024-03-07T00:35:07;8.80;50.70
12156;DHT22;6141;49.092;8.516;2024-03-07T00:37:37;8.70;50.60
12156;DHT22;6141;49.092;8.516;2024-03-07T00:40:06;8.80;50.70
12156;DHT22;6141;49.092;8.516;2024-03-07T00:42:34;8.80;50.30
12156;DHT22;6141;49.092;8.516;2024-03-07T00:45:03;8.90;49.50
12156;DHT22;6141;49.092;8.516;2024-03-07T00:47:31;8.90;49.20
12156;DHT22;6141;49.092;8.516;2024-03-07T00:50:01;8.90;49.00
12156;DHT22;6141;49.092;8.516;2024-03-07T00:52:29;8.90;49.00
12156;DHT22;6141;49.092;8.516;2024-03-07T00:54:57;9.00;47.50
12156;DHT22;6141;49.092;8.516;2024-03-07T00:57:25;9.10;46.60
12156;DHT22;6141;49.092;8.516;2024-03-07T00:59:53;8.90;46.80
12156;DHT22;6141;49.092;8.516;2024-03-07T01:02:23;8.80;47.60
12156;DHT22;6141;49.092;8.516;2024-03-07T01:04:52;8.70;48.70
12156;DHT22;6141;49.092;8.516;2024-03-07T01:07:22;8.60;50.20
12156;DHT22;6141;49.092;8.516;2024-03-07T01:09:51;8.60;50.40
12156;DHT22;6141;49.092;8.516;2024-03-07T01:12:21;8.40;51.10
12156;DHT22;6141;49.092;8.516;2024-03-07T01:14:51;8.20;52.50
12156;DHT22;6141;49.092;8.516;2024-03-07T01:17:19;8.30;52.50
12156;DHT22;6141;49.092;8.516;2024-03-07T01:19:48;8.20;52.50
12156;DHT22;6141;49.092;8.516;2024-03-07T01:22:16;8.30;52.60
12156;DHT22;6141;49.092;8.516;2024-03-07T01:24:46;8.50;51.90
12156;DHT22;6141;49.092;8.516;2024-03-07T01:27:14;8.50;51.40
12156;DHT22;6141;49.092;8.516;2024-03-07T01:29:42;8.70;50.40
12156;DHT22;6141;49.092;8.516;2024-03-07T01:32:11;8.70;49.80
12156;DHT22;6141;49.092;8.516;2024-03-07T01:34:40;8.80;49.50
12156;DHT22;6141;49.092;8.516;2024-03-07T01:37:08;8.70;49.10
12156;DHT22;6141;49.092;8.516;2024-03-07T01:39:36;8.60;50.10
12156;DHT22;6141;49.092;8.516;2024-03-07T01:42:07;8.70;50.60
12156;DHT22;6141;49.092;8.516;2024-03-07T01:44:36;8.40;51.30
12156;DHT22;6141;49.092;8.516;2024-03-07T01:47:05;8.30;51.80
12156;DHT22;6141;49.092;8.516;2024-03-07T01:49:33;8.40;51.60
12156;DHT22;6141;49.092;8.516;2024-03-07T01:52:01;8.40;51.30
12156;DHT22;6141;49.092;8.516;2024-03-07T01:54:32;8.40;50.40
12156;DHT22;6141;49.092;8.516;2024-03-07T01:57:01;8.40;50.30
12156;DHT22;6141;49.092;8.516;2024-03-07T01:59:31;8.40;50.30
12156;DHT22;6141;49.092;8.516;2024-03-07T02:02:00;8.10;50.40
12156;DHT22;6141;49.092;8.516;2024-03-07T02:04:29;8.10;51.00
12156;DHT22;6141;49.092;8.516;2024-03-07T02:06:57;8.20;50.20
12156;DHT22;6141;49.092;8.516;2024-03-07T02:09:25;8.30;49.80
12156;DHT22;6141;49.092;8.516;2024-03-07T02:11:54;8.30;49.00
12156;DHT22;6141;49.092;8.516;2024-03-07T02:14:23;8.10;50.00
12156;DHT22;6141;49.092;8.516;2024-03-07T02:16:52;8.10;50.70
12156;DHT22;6141;49.092;8.516;2024-03-07T02:19:23;8.10;50.10
12156;DHT22;6141;49.092;8.516;2024-03-07T02:21:53;8.10;50.10
12156;DHT22;6141;49.092;8.516;2024-03-07T02:24:21;8.00;50.00
12156;DHT22;6141;49.092;8.516;2024-03-07T02:26:50;8.20;50.10
12156;DHT22;6141;49.092;8.516;2024-03-07T02:29:19;8.10;50.00
12156;DHT22;6141;49.092;8.516;2024-03-07T02:31:47;8.20;49.30
12156;DHT22;6141;49.092;8.516;2024-03-07T02:34:15;8.20;48.50
12156;DHT22;6141;49.092;8.516;2024-03-07T02:36:43;8.30;47.90
12156;DHT22;6141;49.092;8.516;2024-03-07T02:39:13;8.10;48.20
12156;DHT22;6141;49.092;8.516;2024-03-07T02:41:42;8.20;47.70
12156;DHT22;6141;49.092;8.516;2024-03-07T02:44:10;8.40;45.80
12156;DHT22;6141;49.092;8.516;2024-03-07T02:46:39;8.40;45.50
12156;DHT22;6141;49.092;8.516;2024-03-07T02:49:08;8.50;44.40
12156;DHT22;6141;49.092;8.516;2024-03-07T02:51:36;8.30;44.50
12156;DHT22;6141;49.092;8.516;2024-03-07T02:54:04;8.20;44.30
12156;DHT22;6141;49.092;8.516;2024-03-07T02:56:33;8.20;44.90
12156;DHT22;6141;49.092;8.516;2024-03-07T02:59:02;8.20;44.90
12156;DHT22;6141;49.092;8.516;2024-03-07T03:01:31;8.10;45.30
12156;DHT22;6141;49.092;8.516;2024-03-07T03:03:59;7.80;45.20
12156;DHT22;6141;49.092;8.516;2024-03-07T03:06:27;7.50;46.40
12156;DHT22;6141;49.092;8.516;2024-03-07T03:08:56;7.50;47.50
12156;DHT22;6141;49.092;8.516;2024-03-07T03:11:25;7.60;46.70
12156;DHT22;6141;49.092;8.516;2024-03-07T03:13:55;7.80;45.60
12156;DHT22;6141;49.092;8.516;2024-03-07T03:16:23;7.90;43.90
12156;DHT22;6141;49.092;8.516;2024-03-07T03:19:11;7.90;43.70
12156;DHT22;6141;49.092;8.516;2024-03-07T03:21:39;8.00;43.80
12156;DHT22;6141;49.092;8.516;2024-03-07T03:24:08;8.00;43.80
12156;DHT22;6141;49.092;8.516;2024-03-07T03:26:36;8.00;43.90
12156;DHT22;6141;49.092;8.516;2024-03-07T03:29:05;7.90;43.70
12156;DHT22;6141;49.092;8.516;2024-03-07T03:31:34;7.80;43.60
12156;DHT22;6141;49.092;8.516;2024-03-07T03:34:02;7.70;43.50
12156;DHT22;6141;49.092;8.516;2024-03-07T03:36:30;7.40;43.10
12156;DHT22;6141;49.092;8.516;2024-03-07T03:38:58;6.70;46.00
12156;DHT22;6141;49.092;8.516;2024-03-07T03:41:26;6.20;48.30
12156;DHT22;6141;49.092;8.516;2024-03-07T03:43:54;5.80;51.70
12156;DHT22;6141;49.092;8.516;2024-03-07T03:46:24;5.80;53.10
12156;DHT22;6141;49.092;8.516;2024-03-07T03:48:52;5.80;53.90
12156;DHT22;6141;49.092;8.516;2024-03-07T03:51:20;6.20;50.70
12156;DHT22;6141;49.092;8.516;2024-03-07T03:53:49;6.70;47.80
12156;DHT22;6141;49.092;8.516;2024-03-07T03:56:18;6.90;44.60
12156;DHT22;6141;49.092;8.516;2024-03-07T03:58:47;6.90;43.20
12156;DHT22;6141;49.092;8.516;2024-03-07T04:01:15;6.90;42.80
12156;DHT22;6141;49.092;8.516;2024-03-07T04:03:44;6.60;43.40
12156;DHT22;6141;49.092;8.516;2024-03-07T04:06:14;5.90;45.40
12156;DHT22;6141;49.092;8.516;2024-03-07T04:08:42;5.40;50.10
12156;DHT22;6141;49.092;8.516;2024-03-07T04:11:10;5.40;51.90
12156;DHT22;6141;49.092;8.516;2024-03-07T04:13:39;5.80;49.40
12156;DHT22;6141;49.092;8.516;2024-03-07T04:16:07;5.60;48.40
12156;DHT22;6141;49.092;8.516;2024-03-07T04:18:36;5.30;50.40
12156;DHT22;6141;49.092;8.516;2024-03-07T04:21:05;5.30;50.40
12156;DHT22;6141;49.092;8.516;2024-03-07T04:23:36;5.60;49.50
12156;DHT22;6141;49.092;8.516;2024-03-07T04:26:07;5.40;49.00
12156;DHT22;6141;49.092;8.516;2024-03-07T04:28:35;5.70;47.80
12156;DHT22;6141;49.092;8.516;2024-03-07T04:31:03;6.20;46.00
12156;DHT22;6141;49.092;8.516;2024-03-07T04:33:32;6.60;45.10
12156;DHT22;6141;49.092;8.516;2024-03-07T04:36:00;6.70;44.60
12156;DHT22;6141;49.092;8.516;2024-03-07T04:38:31;6.80;43.70
12156;DHT22;6141;49.092;8.516;2024-03-07T04:40:59;6.80;44.00
12156;DHT22;6141;49.092;8.516;2024-03-07T04:43:27;6.90;42.80
12156;DHT22;6141;49.092;8.516;2024-03-07T04:45:56;6.80;42.70
12156;DHT22;6141;49.092;8.516;2024-03-07T04:48:24;6.70;43.30
12156;DHT22;6141;49.092;8.516;2024-03-07T04:50:52;6.60;42.90
12156;DHT22;6141;49.092;8.516;2024-03-07T04:53:21;6.70;42.60
12156;DHT22;6141;49.092;8.516;2024-03-07T04:55:51;6.60;43.40
12156;DHT22;6141;49.092;8.516;2024-03-07T04:58:19;6.40;44.00
12156;DHT22;6141;49.092;8.516;2024-03-07T05:00:47;6.50;44.30
12156;DHT22;6141;49.092;8.516;2024-03-07T05:03:15;6.40;43.70
12156;DHT22;6141;49.092;8.516;2024-03-07T05:05:43;5.70;44.00
12156;DHT22;6141;49.092;8.516;2024-03-07T05:08:11;5.30;46.80
12156;DHT22;6141;49.092;8.516;2024-03-07T05:10:39;5.00;49.60
12156;DHT22;6141;49.092;8.516;2024-03-07T05:13:10;4.90;49.30
12156;DHT22;6141;49.092;8.516;2024-03-07T05:15:38;4.60;51.80
12156;DHT22;6141;49.092;8.516;2024-03-07T05:18:06;4.90;51.10
12156;DHT22;6141;49.092;8.516;2024-03-07T05:20:39;5.10;47.70
12156;DHT22;6141;49.092;8.516;2024-03-07T05:23:08;5.00;47.20
12156;DHT22;6141;49.092;8.516;2024-03-07T05:25:38;4.50;49.10
12156;DHT22;6141;49.092;8.516;2024-03-07T05:28:07;4.40;49.90
12156;DHT22;6141;49.092;8.516;2024-03-07T05:30:37;4.10;52.30
12156;DHT22;6141;49.092;8.516;2024-03-07T05:33:05;4.20;52.40
12156;DHT22;6141;49.092;8.516;2024-03-07T05:35:34;4.70;50.80
12156;DHT22;6141;49.092;8.516;2024-03-07T05:38:02;5.10;47.10
12156;DHT22;6141;49.092;8.516;2024-03-07T05:40:31;5.10;43.70
12156;DHT22;6141;49.092;8.516;2024-03-07T05:43:00;5.00;45.40
12156;DHT22;6141;49.092;8.516;2024-03-07T05:45:29;4.60;47.40
12156;DHT22;6141;49.092;8.516;2024-03-07T05:48:14;4.50;48.10
12156;DHT22;6141;49.092;8.516;2024-03-07T05:50:43;4.40;49.50
12156;DHT22;6141;49.092;8.516;2024-03-07T05:53:13;4.40;49.20
12156;DHT22;6141;49.092;8.516;2024-03-07T05:55:41;4.60;49.80
12156;DHT22;6141;49.092;8.516;2024-03-07T05:58:09;4.80;49.50
12156;DHT22;6141;49.092;8.516;2024-03-07T06:00:37;4.90;49.30
12156;DHT22;6141;49.092;8.516;2024-03-07T06:03:08;5.00;49.30
12156;DHT22;6141;49.092;8.516;2024-03-07T06:05:37;5.40;48.20
12156;DHT22;6141;49.092;8.516;2024-03-07T06:08:12;5.30;47.40
12156;DHT22;6141;49.092;8.516;2024-03-07T06:10:40;5.20;46.60
12156;DHT22;6141;49.092;8.516;2024-03-07T06:13:08;5.20;45.70
12156;DHT22;6141;49.092;8.516;2024-03-07T06:15:39;5.00;47.10
12156;DHT22;6141;49.092;8.516;2024-03-07T06:18:08;4.70;47.70
12156;DHT22;6141;49.092;8.516;2024-03-07T06:20:38;4.60;48.30
12156;DHT22;6141;49.092;8.516;2024-03-07T06:23:08;4.70;49.40
12156;DHT22;6141;49.092;8.516;2024-03-07T06:25:38;4.90;49.80
12156;DHT22;6141;49.092;8.516;2024-03-07T06:28:14;5.00;49.10
12156;DHT22;6141;49.092;8.516;2024-03-07T06:30:44;5.20;48.70
12156;DHT22;6141;49.092;8.516;2024-03-07T06:33:15;5.50;47.00
12156;DHT22;6141;49.092;8.516;2024-03-07T06:35:47;5.70;44.50
12156;DHT22;6141;49.092;8.516;2024-03-07T06:38:15;5.70;45.00
12156;DHT22;6141;49.092;8.516;2024-03-07T06:40:44;5.90;44.20
12156;DHT22;6141;49.092;8.516;2024-03-07T06:43:12;6.00;43.80
12156;DHT22;6141;49.092;8.516;2024-03-07T06:45:41;6.10;42.60
12156;DHT22;6141;49.092;8.516;2024-03-07T06:48:09;6.20;42.10
12156;DHT22;6141;49.092;8.516;2024-03-07T06:50:39;6.10;42.00
12156;DHT22;6141;49.092;8.516;2024-03-07T06:53:07;6.00;42.20
12156;DHT22;6141;49.092;8.516;2024-03-07T06:55:36;5.90;42.00
12156;DHT22;6141;49.092;8.516;2024-03-07T06:58:05;5.80;42.10
12156;DHT22;6141;49.092;8.516;2024-03-07T07:00:34;5.70;44.60
12156;DHT22;6141;49.092;8.516;2024-03-07T07:03:05;5.60;44.90
12156;DHT22;6141;49.092;8.516;2024-03-07T07:05:34;5.70;44.30
12156;DHT22;6141;49.092;8.516;2024-03-07T07:08:04;5.90;44.20
12156;DHT22;6141;49.092;8.516;2024-03-07T07:10:34;5.90;44.40
12156;DHT22;6141;49.092;8.516;2024-03-07T07:13:05;5.90;43.70
12156;DHT22;6141;49.092;8.516;2024-03-07T07:15:33;5.80;44.40
12156;DHT22;6141;49.092;8.516;2024-03-07T07:18:04;5.70;45.50
12156;DHT22;6141;49.092;8.516;2024-03-07T07:20:33;5.70;46.10
12156;DHT22;6141;49.092;8.516;2024-03-07T07:23:03;5.80;46.20
12156;DHT22;6141;49.092;8.516;2024-03-07T07:25:32;5.90;46.20
12156;DHT22;6141;49.092;8.516;2024-03-07T07:28:00;6.00;44.50
12156;DHT22;6141;49.092;8.516;2024-03-07T07:30:31;6.00;44.40
12156;DHT22;6141;49.092;8.516;2024-03-07T07:33:00;5.90;46.00
12156;DHT22;6141;49.092;8.516;2024-03-07T07:35:28;6.20;45.30
12156;DHT22;6141;49.092;8.516;2024-03-07T07:37:56;6.20;44.60
12156;DHT22;6141;49.092;8.516;2024-03-07T07:40:26;6.20;45.10
12156;DHT22;6141;49.092;8.516;2024-03-07T07:42:55;6.40;44.70
12156;DHT22;6141;49.092;8.516;2024-03-07T07:45:24;6.20;45.40
12156;DHT22;6141;49.092;8.516;2024-03-07T07:47:53;6.30;44.40
12156;DHT22;6141;49.092;8.516;2024-03-07T07:50:23;6.30;44.40
12156;DHT22;6141;49.092;8.516;2024-03-07T07:52:54;6.30;44.30
12156;DHT22;6141;49.092;8.516;2024-03-07T07:55:24;6.40;44.60
12156;DHT22;6141;49.092;8.516;2024-03-07T07:57:55;6.40;45.20
12156;DHT22;6141;49.092;8.516;2024-03-07T08:00:24;6.40;44.10
12156;DHT22;6141;49.092;8.516;2024-03-07T08:02:58;6.60;44.30
12156;DHT22;6141;49.092;8.516;2024-03-07T08:05:27;6.80;44.10
12156;DHT22;6141;49.092;8.516;2024-03-07T08:07:57;7.00;42.60
12156;DHT22;6141;49.092;8.516;2024-03-07T08:10:27;7.20;42.70
12156;DHT22;6141;49.092;8.516;2024-03-07T08:12:58;7.50;40.90
12156;DHT22;6141;49.092;8.516;2024-03-07T08:15:28;7.50;39.10
12156;DHT22;6141;49.092;8.516;2024-03-07T08:17:56;7.70;39.50
12156;DHT22;6141;49.092;8.516;2024-03-07T08:20:26;7.80;36.30
12156;DHT22;6141;49.092;8.516;2024-03-07T08:22:56;7.90;36.30
12156;DHT22;6141;49.092;8.516;2024-03-07T08:25:27;7.90;37.50
12156;DHT22;6141;49.092;8.516;2024-03-07T08:27:58;8.00;36.30
12156;DHT22;6141;49.092;8.516;2024-03-07T08:30:26;8.10;34.40
12156;DHT22;6141;49.092;8.516;2024-03-07T08:32:56;8.00;37.60
12156;DHT22;6141;49.092;8.516;2024-03-07T08:35:26;8.20;35.10
12156;DHT22;6141;49.092;8.516;2024-03-07T08:37:56;8.10;35.80
12156;DHT22;6141;49.092;8.516;2024-03-07T08:40:26;8.10;36.90
12156;DHT22;6141;49.092;8.516;2024-03-07T08:43:00;8.30;31.80
12156;DHT22;6141;49.092;8.516;2024-03-07T08:45:29;8.30;32.90
12156;DHT22;6141;49.092;8.516;2024-03-07T08:48:01;8.50;31.70
12156;DHT22;6141;49.092;8.516;2024-03-07T08:50:32;8.50;31.70
12156;DHT22;6141;49.092;8.516;2024-03-07T08:53:02;8.50;31.70
12156;DHT22;6141;49.092;8.516;2024-03-07T08:55:31;8.40;31.60
12156;DHT22;6141;49.092;8.516;2024-03-07T08:58:01;8.40;31.60
12156;DHT22;6141;49.092;8.516;2024-03-07T09:00:29;8.10;29.80
12156;DHT22;6141;49.092;8.516;2024-03-07T09:03:02;8.10;30.30
12156;DHT22;6141;49.092;8.516;2024-03-07T09:05:31;8.20;29.50
12156;DHT22;6141;49.092;8.516;2024-03-07T09:08:01;8.20;29.60
12156;DHT22;6141;49.092;8.516;2024-03-07T09:10:30;8.10;29.10
12156;DHT22;6141;49.092;8.516;2024-03-07T09:12:58;8.20;28.30
12156;DHT22;6141;49.092;8.516;2024-03-07T09:15:28;8.40;30.40
12156;DHT22;6141;49.092;8.516;2024-03-07T09:17:56;8.50;29.70
12156;DHT22;6141;49.092;8.516;2024-03-07T09:20:25;8.50;30.40
12156;DHT22;6141;49.092;8.516;2024-03-07T09:22:54;8.40;29.00
12156;DHT22;6141;49.092;8.516;2024-03-07T09:25:23;8.30;28.40
12156;DHT22;6141;49.092;8.516;2024-03-07T09:27:52;8.20;27.50
12156;DHT22;6141;49.092;8.516;2024-03-07T09:30:22;7.80;27.30
12156;DHT22;6141;49.092;8.516;2024-03-07T09:32:54;7.70;28.40
12156;DHT22;6141;49.092;8.516;2024-03-07T09:35:23;7.70;29.20
12156;DHT22;6141;49.092;8.516;2024-03-07T09:37:52;7.80;29.60
12156;DHT22;6141;49.092;8.516;2024-03-07T09:40:20;7.90;30.30
12156;DHT22;6141;49.092;8.516;2024-03-07T09:42:52;8.10;28.20
12156;DHT22;6141;49.092;8.516;2024-03-07T09:45:23;8.20;28.20
12156;DHT22;6141;49.092;8.516;2024-03-07T09:47:57;8.20;27.80
12156;DHT22;6141;49.092;8.516;2024-03-07T09:50:26;8.30;27.90
12156;DHT22;6141;49.092;8.516;2024-03-07T09:52:58;8.40;27.80
12156;DHT22;6141;49.092;8.516;2024-03-07T09:55:27;8.50;28.20
12156;DHT22;6141;49.092;8.516;2024-03-07T09:57:58;8.60;26.80
12156;DHT22;6141;49.092;8.516;2024-03-07T10:00:28;8.60;28.20
12156;DHT22;6141;49.092;8.516;2024-03-07T10:03:01;8.60;29.90
12156;DHT22;6141;49.092;8.516;2024-03-07T10:05:31;8.80;27.10
12156;DHT22;6141;49.092;8.516;2024-03-07T10:08:00;9.00;27.30
12156;DHT22;6141;49.092;8.516;2024-03-07T10:10:29;9.20;27.50
12156;DHT22;6141;49.092;8.516;2024-03-07T10:12:58;9.00;26.90
12156;DHT22;6141;49.092;8.516;2024-03-07T10:15:28;8.90;26.40
12156;DHT22;6141;49.092;8.516;2024-03-07T10:17:58;8.80;27.10
12156;DHT22;6141;49.092;8.516;2024-03-07T10:20:28;8.90;27.80
12156;DHT22;6141;49.092;8.516;2024-03-07T10:22:56;9.00;27.70
12156;DHT22;6141;49.092;8.516;2024-03-07T10:25:25;9.20;26.90
12156;DHT22;6141;49.092;8.516;2024-03-07T10:27:56;9.10;26.20
12156;DHT22;6141;49.092;8.516;2024-03-07T10:30:27;9.10;29.20
12156;DHT22;6141;49.092;8.516;2024-03-07T10:32:57;8.80;27.60
12156;DHT22;6141;49.092;8.516;2024-03-07T10:35:29;8.90;28.80
12156;DHT22;6141;49.092;8.516;2024-03-07T10:37:59;9.30;27.00
12156;DHT22;6141;49.092;8.516;2024-03-07T10:40:33;9.20;25.30
12156;DHT22;6141;49.092;8.516;2024-03-07T10:43:07;9.20;27.20
12156;DHT22;6141;49.092;8.516;2024-03-07T10:45:42;9.20;27.40
12156;DHT22;6141;49.092;8.516;2024-03-07T10:48:13;8.70;26.60
12156;DHT22;6141;49.092;8.516;2024-03-07T10:50:55;8.60;28.70
12156;DHT22;6141;49.092;8.516;2024-03-07T10:53:31;8.50;28.80
12156;DHT22;6141;49.092;8.516;2024-03-07T10:56:14;8.70;29.60
12156;DHT22;6141;49.092;8.516;2024-03-07T10:58:57;9.20;29.20
12156;DHT22;6141;49.092;8.516;2024-03-07T11:01:30;9.40;27.20
12156;DHT22;6141;49.092;8.516;2024-03-07T11:04:00;9.50;25.80
12156;DHT22;6141;49.092;8.516;2024-03-07T11:06:32;9.70;26.50
12156;DHT22;6141;49.092;8.516;2024-03-07T11:09:03;9.80;26.50
12156;DHT22;6141;49.092;8.516;2024-03-07T11:11:38;9.70;27.90
12156;DHT22;6141;49.092;8.516;2024-03-07T11:14:09;9.70;28.80
12156;DHT22;6141;49.092;8.516;2024-03-07T11:16:39;9.80;27.20
12156;DHT22;6141;49.092;8.516;2024-03-07T11:19:24;9.80;26.00
12156;DHT22;6141;49.092;8.516;2024-03-07T11:21:56;9.70;25.90
12156;DHT22;6141;49.092;8.516;2024-03-07T11:24:28;9.70;27.20
12156;DHT22;6141;49.092;8.516;2024-03-07T11:27:02;9.70;27.20
12156;DHT22;6141;49.092;8.516;2024-03-07T11:29:42;9.50;25.80
12156;DHT22;6141;49.092;8.516;2024-03-07T11:32:11;9.40;27.00
12156;DHT22;6141;49.092;8.516;2024-03-07T11:34:41;9.30;25.90
12156;DHT22;6141;49.092;8.516;2024-03-07T11:37:10;9.10;26.10
12156;DHT22;6141;49.092;8.516;2024-03-07T11:39:45;9.10;26.20
12156;DHT22;6141;49.092;8.516;2024-03-07T11:42:25;9.10;27.30
12156;DHT22;6141;49.092;8.516;2024-03-07T11:44:54;9.10;28.50
12156;DHT22;6141;49.092;8.516;2024-03-07T11:47:24;9.30;28.30
12156;DHT22;6141;49.092;8.516;2024-03-07T11:49:56;9.70;29.70
12156;DHT22;6141;49.092;8.516;2024-03-07T11:52:27;9.70;27.20
12156;DHT22;6141;49.092;8.516;2024-03-07T11:54:55;9.90;26.60
12156;DHT22;6141;49.092;8.516;2024-03-07T11:57:32;10.10;25.00
12156;DHT22;6141;49.092;8.516;2024-03-07T12:00:01;10.20;24.40
12156;DHT22;6141;49.092;8.516;2024-03-07T12:02:38;10.10;25.50
12156;DHT22;6141;49.092;8.516;2024-03-07T12:05:08;10.20;25.30
12156;DHT22;6141;49.092;8.516;2024-03-07T12:07:37;10.10;24.10
12156;DHT22;6141;49.092;8.516;2024-03-07T12:10:07;10.00;24.00
12156;DHT22;6141;49.092;8.516;2024-03-07T12:12:35;9.80;24.50
12156;DHT22;6141;49.092;8.516;2024-03-07T12:15:07;9.90;25.00
12156;DHT22;6141;49.092;8.516;2024-03-07T12:17:43;9.80;24.80
12156;DHT22;6141;49.092;8.516;2024-03-07T12:20:12;9.90;26.40
12156;DHT22;6141;49.092;8.516;2024-03-07T12:22:57;10.00;24.90
12156;DHT22;6141;49.092;8.516;2024-03-07T12:25:29;10.00;24.30
12156;DHT22;6141;49.092;8.516;2024-03-07T12:28:02;9.80;25.40
12156;DHT22;6141;49.092;8.516;2024-03-07T12:30:33;9.80;25.00
12156;DHT22;6141;49.092;8.516;2024-03-07T12:33:02;9.60;27.20
12156;DHT22;6141;49.092;8.516;2024-03-07T12:35:34;9.70;25.90
12156;DHT22;6141;49.092;8.516;2024-03-07T12:38:04;9.70;27.30
12156;DHT22;6141;49.092;8.516;2024-03-07T12:40:32;9.90;28.00
12156;DHT22;6141;49.092;8.516;2024-03-07T12:43:02;9.80;27.30
12156;DHT22;6141;49.092;8.516;2024-03-07T12:45:30;9.80;25.90
12156;DHT22;6141;49.092;8.516;2024-03-07T12:48:00;10.00;23.80
12156;DHT22;6141;49.092;8.516;2024-03-07T12:50:32;9.90;26.30
12156;DHT22;6141;49.092;8.516;2024-03-07T12:53:05;10.00;23.80
12156;DHT22;6141;49.092;8.516;2024-03-07T12:55:39;10.10;25.60
12156;DHT22;6141;49.092;8.516;2024-03-07T12:58:09;9.90;24.40
12156;DHT22;6141;49.092;8.516;2024-03-07T13:00:38;9.90;23.80
12156;DHT22;6141;49.092;8.516;2024-03-07T13:03:08;9.80;23.70
12156;DHT22;6141;49.092;8.516;2024-03-07T13:05:36;9.60;23.70
12156;DHT22;6141;49.092;8.516;2024-03-07T13:08:09;9.60;25.70
12156;DHT22;6141;49.092;8.516;2024-03-07T13:10:39;9.50;25.70
12156;DHT22;6141;49.092;8.516;2024-03-07T13:13:07;9.80;25.10
12156;DHT22;6141;49.092;8.516;2024-03-07T13:15:36;9.90;26.00
12156;DHT22;6141;49.092;8.516;2024-03-07T13:18:06;9.70;25.80
12156;DHT22;6141;49.092;8.516;2024-03-07T13:20:36;9.60;25.20
12156;DHT22;6141;49.092;8.516;2024-03-07T13:23:05;9.70;24.30
12156;DHT22;6141;49.092;8.516;2024-03-07T13:25:34;9.70;26.60
12156;DHT22;6141;49.092;8.516;2024-03-07T13:28:05;9.50;25.50
12156;DHT22;6141;49.092;8.516;2024-03-07T13:30:35;9.60;26.10
12156;DHT22;6141;49.092;8.516;2024-03-07T13:33:04;9.80;25.60
12156;DHT22;6141;49.092;8.516;2024-03-07T13:35:32;9.70;26.30
12156;DHT22;6141;49.092;8.516;2024-03-07T13:38:03;9.70;25.40
12156;DHT22;6141;49.092;8.516;2024-03-07T13:40:31;9.70;26.20
12156;DHT22;6141;49.092;8.516;2024-03-07T13:43:07;9.90;26.90
12156;DHT22;6141;49.092;8.516;2024-03-07T13:45:36;9.90;26.10
12156;DHT22;6141;49.092;8.516;2024-03-07T13:48:07;10.00;25.40
12156;DHT22;6141;49.092;8.516;2024-03-07T13:50:37;10.10;26.20
12156;DHT22;6141;49.092;8.516;2024-03-07T13:53:24;10.20;26.00
12156;DHT22;6141;49.092;8.516;2024-03-07T13:56:28;10.20;24.70
12156;DHT22;6141;49.092;8.516;2024-03-07T13:59:26;10.30;25.00
12156;DHT22;6141;49.092;8.516;2024-03-07T14:02:09;10.20;23.80
12156;DHT22;6141;49.092;8.516;2024-03-07T14:07:53;10.30;24.50
12156;DHT22;6141;49.092;8.516;2024-03-07T14:13:42;10.10;26.70
12156;DHT22;6141;49.092;8.516;2024-03-07T14:16:48;10.00;25.30
12156;DHT22;6141;49.092;8.516;2024-03-07T14:22:32;10.00;26.40
12156;DHT22;6141;49.092;8.516;2024-03-07T14:25:31;10.00;26.00
12156;DHT22;6141;49.092;8.516;2024-03-07T14:28:15;10.10;25.60
12156;DHT22;6141;49.092;8.516;2024-03-07T14:30:50;10.40;26.90
12156;DHT22;6141;49.092;8.516;2024-03-07T14:33:28;10.60;24.40
12156;DHT22;6141;49.092;8.516;2024-03-07T14:36:07;10.50;25.20
12156;DHT22;6141;49.092;8.516;2024-03-07T14:38:46;10.30;24.90
12156;DHT22;6141;49.092;8.516;2024-03-07T14:41:18;10.40;25.50
12156;DHT22;6141;49.092;8.516;2024-03-07T14:43:46;10.60;24.40
12156;DHT22;6141;49.092;8.516;2024-03-07T14:46:16;10.50;25.20
12156;DHT22;6141;49.092;8.516;2024-03-07T14:48:46;10.50;25.10
12156;DHT22;6141;49.092;8.516;2024-03-07T14:51:15;10.30;25.00
12156;DHT22;6141;49.092;8.516;2024-03-07T14:53:45;10.00;24.70
12156;DHT22;6141;49.092;8.516;2024-03-07T14:56:13;9.80;27.40
12156;DHT22;6141;49.092;8.516;2024-03-07T14:58:41;9.80;26.50
12156;DHT22;6141;49.092;8.516;2024-03-07T15:01:09;9.70;26.70
12156;DHT22;6141;49.092;8.516;2024-03-07T15:03:39;9.80;27.00
12156;DHT22;6141;49.092;8.516;2024-03-07T15:06:13;10.00;26.60
12156;DHT22;6141;49.092;8.516;2024-03-07T15:08:42;10.10;26.70
12156;DHT22;6141;49.092;8.516;2024-03-07T15:11:14;10.00;25.30
12156;DHT22;6141;49.092;8.516;2024-03-07T15:13:47;9.80;26.60
12156;DHT22;6141;49.092;8.516;2024-03-07T15:16:16;9.80;27.20
12156;DHT22;6141;49.092;8.516;2024-03-07T15:18:59;9.90;27.40
12156;DHT22;6141;49.092;8.516;2024-03-07T15:21:29;10.00;26.60
12156;DHT22;6141;49.092;8.516;2024-03-07T15:23:57;10.10;26.10
12156;DHT22;6141;49.092;8.516;2024-03-07T15:26:26;10.10;25.60
12156;DHT22;6141;49.092;8.516;2024-03-07T15:28:55;10.20;25.30
12156;DHT22;6141;49.092;8.516;2024-03-07T15:31:24;10.00;25.80
12156;DHT22;6141;49.092;8.516;2024-03-07T15:33:52;10.00;25.90
12156;DHT22;6141;49.092;8.516;2024-03-07T15:36:21;10.00;25.00
12156;DHT22;6141;49.092;8.516;2024-03-07T15:38:51;9.80;27.40
12156;DHT22;6141;49.092;8.516;2024-03-07T15:41:20;9.90;27.40
12156;DHT22;6141;49.092;8.516;2024-03-07T15:43:49;10.10;26.50
12156;DHT22;6141;49.092;8.516;2024-03-07T15:46:17;10.20;26.50
12156;DHT22;6141;49.092;8.516;2024-03-07T15:48:46;10.10;25.50
12156;DHT22;6141;49.092;8.516;2024-03-07T15:51:16;10.10;25.80
12156;DHT22;6141;49.092;8.516;2024-03-07T15:53:45;10.00;25.80
12156;DHT22;6141;49.092;8.516;2024-03-07T15:56:15;10.00;26.00
12156;DHT22;6141;49.092;8.516;2024-03-07T15:58:44;9.90;28.90
12156;DHT22;6141;49.092;8.516;2024-03-07T16:01:12;10.00;27.60
12156;DHT22;6141;49.092;8.516;2024-03-07T16:03:43;9.90;27.40
12156;DHT22;6141;49.092;8.516;2024-03-07T16:06:13;9.80;27.30
12156;DHT22;6141;49.092;8.516;2024-03-07T16:08:43;9.80;27.70
12156;DHT22;6141;49.092;8.516;2024-03-07T16:11:12;9.80;28.10
12156;DHT22;6141;49.092;8.516;2024-03-07T16:13:42;9.80;27.30
12156;DHT22;6141;49.092;8.516;2024-03-07T16:16:11;9.80;26.60
12156;DHT22;6141;49.092;8.516;2024-03-07T16:18:40;9.60;26.60
12156;DHT22;6141;49.092;8.516;2024-03-07T16:21:10;9.70;26.70
12156;DHT22;6141;49.092;8.516;2024-03-07T16:23:38;9.50;27.50
12156;DHT22;6141;49.092;8.516;2024-03-07T16:26:08;9.50;27.10
12156;DHT22;6141;49.092;8.516;2024-03-07T16:28:36;9.70;27.20